createdAt,value
2023-11-30T00:00:20.117Z,74.90
2023-11-30T00:02:47.517Z,75.20
2023-11-30T00:05:14.767Z,75.02
2023-11-30T00:07:41.992Z,75.07
2023-11-30T00:10:09.628Z,75.44
2023-11-30T00:12:36.761Z,75.40
2023-11-30T00:15:04.269Z,75.47
2023-11-30T00:17:33.919Z,75.14
2023-11-30T00:20:01.149Z,75.60
2023-11-30T00:22:29.158Z,75.63
2023-11-30T00:24:56.355Z,75.43
2023-11-30T00:27:23.424Z,75.20
2023-11-30T00:29:50.671Z,75.51
2023-11-30T00:32:17.772Z,75.51
2023-11-30T00:34:45.397Z,75.20
2023-11-30T00:37:13.006Z,75.39
2023-11-30T00:39:40.093Z,75.65
2023-11-30T00:42:07.610Z,75.27
2023-11-30T00:44:34.947Z,75.24
2023-11-30T00:47:02.117Z,75.36
2023-11-30T00:49:29.330Z,75.27
2023-11-30T00:51:56.436Z,75.37
2023-11-30T00:54:23.699Z,75.40
2023-11-30T00:56:51.051Z,75.58
2023-11-30T00:59:18.237Z,75.46
2023-11-30T01:01:45.471Z,75.26
2023-11-30T01:04:12.782Z,75.66
2023-11-30T01:06:39.823Z,75.37
2023-11-30T01:09:08.430Z,75.62
2023-11-30T01:11:43.127Z,75.74
2023-11-30T01:14:10.501Z,75.34
2023-11-30T01:16:37.657Z,75.22
2023-11-30T01:19:04.934Z,75.65
2023-11-30T01:21:33.171Z,75.66
2023-11-30T01:24:00.537Z,75.27
2023-11-30T01:26:27.921Z,75.83
2023-11-30T01:28:55.255Z,75.71
2023-11-30T01:31:22.593Z,75.71
2023-11-30T01:33:50.960Z,75.45
2023-11-30T01:36:18.221Z,75.78
2023-11-30T01:38:45.781Z,75.81
2023-11-30T01:41:12.927Z,75.77
2023-11-30T01:43:40.134Z,75.79
2023-11-30T01:46:07.738Z,75.62
2023-11-30T01:48:35.654Z,75.71
2023-11-30T01:51:06.828Z,75.54
2023-11-30T01:53:37.707Z,75.56
2023-11-30T01:56:07.277Z,75.54
2023-11-30T01:58:35.139Z,75.62
2023-11-30T02:01:02.410Z,76.05
2023-11-30T02:03:29.920Z,75.94
2023-11-30T02:05:57.208Z,75.99
2023-11-30T02:08:24.319Z,75.99
2023-11-30T02:10:51.556Z,75.74
2023-11-30T02:13:18.740Z,75.93
2023-11-30T02:15:46.301Z,75.76
2023-11-30T02:18:13.773Z,75.76
2023-11-30T02:21:03.544Z,75.92
2023-11-30T02:23:30.702Z,76.04
2023-11-30T02:25:57.789Z,76.06
2023-11-30T02:28:26.223Z,76.08
2023-11-30T02:30:53.442Z,75.85
2023-11-30T02:33:20.744Z,75.88
2023-11-30T02:35:48.032Z,76.45
2023-11-30T02:38:15.132Z,76.09
2023-11-30T02:40:42.275Z,76.39
2023-11-30T02:43:09.429Z,76.12
2023-11-30T02:45:36.532Z,76.27
2023-11-30T02:48:05.912Z,76.15
2023-11-30T02:50:33.015Z,76.10
2023-11-30T02:53:00.219Z,76.40
2023-11-30T02:55:27.290Z,76.05
2023-11-30T02:57:54.857Z,76.41
2023-11-30T03:00:22.012Z,75.79
2023-11-30T03:02:49.206Z,76.08
2023-11-30T03:05:16.348Z,76.14
2023-11-30T03:07:43.468Z,76.06
2023-11-30T03:10:10.612Z,76.23
2023-11-30T03:12:37.804Z,75.82
2023-11-30T03:15:05.341Z,76.21
2023-11-30T03:17:32.688Z,76.01
2023-11-30T03:19:59.948Z,75.86
2023-11-30T03:22:27.144Z,75.99
2023-11-30T03:24:54.190Z,76.28
2023-11-30T03:27:22.286Z,75.89
2023-11-30T03:29:49.563Z,76.10
2023-11-30T03:32:16.685Z,75.97
2023-11-30T03:34:43.786Z,76.03
2023-11-30T03:37:11.027Z,76.06
2023-11-30T03:39:38.137Z,76.17
2023-11-30T03:42:05.709Z,76.20
2023-11-30T03:44:32.858Z,75.66
2023-11-30T03:47:00.863Z,75.61
2023-11-30T03:49:28.039Z,75.73
2023-11-30T03:51:55.138Z,75.43
2023-11-30T03:54:22.243Z,75.79
2023-11-30T03:56:49.518Z,75.55
2023-11-30T03:59:16.650Z,75.74
2023-11-30T04:01:43.755Z,75.85
2023-11-30T04:04:11.026Z,75.78
2023-11-30T04:06:38.295Z,75.85
2023-11-30T04:09:05.525Z,75.86
2023-11-30T04:11:32.796Z,76.29
2023-11-30T04:14:07.356Z,75.86
2023-11-30T04:16:36.596Z,75.94
2023-11-30T04:19:04.013Z,75.78
2023-11-30T04:21:32.431Z,76.23
2023-11-30T04:24:00.009Z,75.92
2023-11-30T04:26:27.904Z,76.03
2023-11-30T04:28:55.976Z,76.07
2023-11-30T04:31:23.653Z,76.50
2023-11-30T04:33:50.915Z,76.54
2023-11-30T04:36:18.463Z,76.54
2023-11-30T04:38:45.602Z,76.56
2023-11-30T04:41:13.383Z,76.14
2023-11-30T04:43:41.481Z,76.38
2023-11-30T04:46:09.379Z,76.38
2023-11-30T04:48:38.275Z,76.34
2023-11-30T04:51:06.978Z,76.35
2023-11-30T04:53:34.391Z,76.47
2023-11-30T04:56:01.725Z,76.88
2023-11-30T04:58:29.069Z,76.35
2023-11-30T05:00:56.700Z,76.92
2023-11-30T05:03:24.350Z,76.59
2023-11-30T05:05:51.668Z,76.64
2023-11-30T05:08:18.709Z,76.79
2023-11-30T05:10:45.857Z,76.55
2023-11-30T05:13:13.097Z,77.09
2023-11-30T05:15:41.126Z,76.79
2023-11-30T05:18:08.640Z,76.81
2023-11-30T05:20:36.032Z,77.10
2023-11-30T05:23:03.145Z,76.93
2023-11-30T05:25:30.758Z,77.02
2023-11-30T05:28:02.342Z,76.78
2023-11-30T05:30:29.549Z,76.85
2023-11-30T05:32:56.958Z,76.90
2023-11-30T05:35:24.190Z,77.01
2023-11-30T05:37:51.604Z,77.04
2023-11-30T05:40:20.885Z,77.00
2023-11-30T05:42:49.077Z,77.01
2023-11-30T05:45:16.602Z,77.04
2023-11-30T05:47:44.097Z,77.25
2023-11-30T05:50:11.465Z,76.76
2023-11-30T05:52:39.841Z,76.81
2023-11-30T05:55:08.925Z,77.03
2023-11-30T05:57:37.127Z,76.90
2023-11-30T06:00:05.151Z,77.16
2023-11-30T06:02:40.871Z,76.60
2023-11-30T06:05:09.205Z,76.50
2023-11-30T06:07:38.329Z,76.90
2023-11-30T06:10:07.062Z,76.79
2023-11-30T06:12:34.197Z,76.73
2023-11-30T06:15:01.534Z,76.59
2023-11-30T06:17:31.773Z,76.82
2023-11-30T06:19:59.451Z,76.71
2023-11-30T06:22:26.636Z,76.75
2023-11-30T06:24:54.318Z,76.70
2023-11-30T06:27:21.839Z,76.40
2023-11-30T06:29:49.194Z,76.82
2023-11-30T06:32:16.516Z,76.72
2023-11-30T06:34:43.896Z,76.58
2023-11-30T06:37:11.112Z,76.64
2023-11-30T06:39:44.683Z,76.26
2023-11-30T06:42:14.304Z,76.47
2023-11-30T06:44:46.313Z,76.37
2023-11-30T06:47:13.665Z,76.43
2023-11-30T06:49:43.883Z,76.37
2023-11-30T06:52:11.019Z,76.40
2023-11-30T06:54:38.214Z,76.26
2023-11-30T06:57:08.569Z,76.43
2023-11-30T06:59:35.739Z,76.31
2023-11-30T07:02:02.898Z,76.48
2023-11-30T07:04:32.368Z,76.46
2023-11-30T07:06:59.604Z,75.93
2023-11-30T07:09:27.291Z,76.15
2023-11-30T07:11:54.448Z,76.23
2023-11-30T07:14:21.537Z,76.31
2023-11-30T07:16:48.750Z,76.27
2023-11-30T07:19:15.977Z,76.24
2023-11-30T07:21:43.211Z,76.24
2023-11-30T07:24:12.358Z,76.29
2023-11-30T07:26:40.593Z,75.87
2023-11-30T07:29:07.866Z,75.85
2023-11-30T07:31:35.926Z,76.13
2023-11-30T07:34:04.353Z,76.22
2023-11-30T07:36:33.600Z,76.52
2023-11-30T07:39:00.893Z,76.48
2023-11-30T07:41:28.031Z,76.05
2023-11-30T07:48:04.949Z,76.17
2023-11-30T07:50:32.533Z,76.16
2023-11-30T07:53:00.069Z,76.06
2023-11-30T07:55:27.154Z,76.14
2023-11-30T07:57:54.342Z,75.93
2023-11-30T08:00:23.338Z,76.20
2023-11-30T08:02:50.500Z,76.14
2023-11-30T08:05:18.201Z,75.77
2023-11-30T08:07:45.282Z,75.55
2023-11-30T08:10:12.341Z,75.45
2023-11-30T08:12:39.379Z,75.82
2023-11-30T08:15:08.209Z,75.77
2023-11-30T08:17:35.421Z,75.09
2023-11-30T08:20:02.905Z,75.46
2023-11-30T08:22:32.349Z,75.07
2023-11-30T08:25:01.383Z,75.40
2023-11-30T08:27:31.429Z,75.30
2023-11-30T08:29:58.595Z,75.32
2023-11-30T08:32:25.925Z,75.17
2023-11-30T08:34:53.545Z,75.23
2023-11-30T08:37:20.670Z,74.86
2023-11-30T08:39:47.898Z,74.90
2023-11-30T08:42:15.102Z,75.26
2023-11-30T08:44:42.596Z,75.09
2023-11-30T08:47:09.751Z,74.71
2023-11-30T08:49:36.896Z,74.32
2023-11-30T08:52:04.175Z,74.60
2023-11-30T08:54:31.288Z,74.79
2023-11-30T08:56:59.645Z,74.71
2023-11-30T08:59:26.846Z,74.92
2023-11-30T09:01:54.024Z,74.29
2023-11-30T09:04:21.422Z,74.70
2023-11-30T09:06:48.545Z,74.57
2023-11-30T09:09:15.754Z,74.19
2023-11-30T09:11:45.962Z,74.25
2023-11-30T09:14:13.268Z,74.43
2023-11-30T09:16:40.346Z,74.16
2023-11-30T09:19:07.517Z,74.10
2023-11-30T09:21:34.661Z,74.62
2023-11-30T09:24:05.043Z,74.36
2023-11-30T09:26:33.237Z,74.42
2023-11-30T09:29:04.281Z,74.29
2023-11-30T09:31:32.277Z,74.69
2023-11-30T09:33:59.350Z,74.60
2023-11-30T09:36:26.555Z,74.83
2023-11-30T09:38:53.649Z,74.92
2023-11-30T09:41:24.103Z,74.93
2023-11-30T09:43:51.759Z,74.76
2023-11-30T09:46:19.101Z,74.83
2023-11-30T09:48:47.152Z,74.92
2023-11-30T09:51:20.991Z,74.67
2023-11-30T09:53:48.127Z,74.34
2023-11-30T09:56:15.466Z,74.21
2023-11-30T09:58:43.600Z,74.52
2023-11-30T10:01:10.765Z,74.24
2023-11-30T10:03:39.296Z,74.11
2023-11-30T10:06:07.700Z,74.11
2023-11-30T10:08:34.849Z,74.41
2023-11-30T10:11:02.935Z,73.98
2023-11-30T10:13:29.946Z,73.67
2023-11-30T10:15:57.093Z,73.63
2023-11-30T10:18:24.282Z,72.81
2023-11-30T10:20:51.990Z,73.33
2023-11-30T10:23:19.010Z,72.86
2023-11-30T10:25:47.740Z,72.84
2023-11-30T10:28:15.949Z,72.33
2023-11-30T10:30:44.690Z,72.74
2023-11-30T10:33:22.033Z,72.06
2023-11-30T10:35:51.401Z,72.16
2023-11-30T10:38:29.180Z,71.60
2023-11-30T10:41:16.542Z,71.75
2023-11-30T10:43:50.374Z,71.74
2023-11-30T10:46:19.290Z,72.03
2023-11-30T10:48:47.152Z,72.19
2023-11-30T10:51:14.721Z,72.00
2023-11-30T10:54:00.495Z,69.95
2023-11-30T10:56:29.861Z,71.43
2023-11-30T10:59:00.197Z,71.43
2023-11-30T11:01:28.427Z,71.79
2023-11-30T11:03:58.786Z,71.80
2023-11-30T11:06:26.895Z,72.05
2023-11-30T11:09:08.807Z,71.13
2023-11-30T11:11:40.779Z,71.75
2023-11-30T11:14:08.160Z,71.94
2023-11-30T11:16:42.776Z,71.65
2023-11-30T11:19:13.442Z,71.66
2023-11-30T11:21:42.508Z,71.89
2023-11-30T11:24:09.906Z,72.01
2023-11-30T11:26:48.541Z,71.01
2023-11-30T11:29:21.514Z,71.49
2023-11-30T11:31:58.030Z,71.51
2023-11-30T11:34:25.243Z,71.33
2023-11-30T11:36:52.543Z,71.29
2023-11-30T11:39:23.174Z,71.06
2023-11-30T11:41:50.562Z,71.06
2023-11-30T11:44:17.666Z,71.12
2023-11-30T11:46:44.765Z,70.88
2023-11-30T11:49:12.322Z,71.04
2023-11-30T11:51:44.904Z,70.76
2023-11-30T11:54:22.514Z,70.04
2023-11-30T11:56:51.500Z,70.78
2023-11-30T11:59:23.863Z,70.62
2023-11-30T12:01:52.302Z,70.81
2023-11-30T12:04:33.705Z,70.06
2023-11-30T12:07:13.561Z,69.96
2023-11-30T12:09:40.711Z,70.83
2023-11-30T12:12:08.962Z,70.66
2023-11-30T12:14:36.437Z,70.92
2023-11-30T12:17:03.588Z,70.90
2023-11-30T12:19:34.064Z,71.11
2023-11-30T12:22:01.130Z,71.10
2023-11-30T12:24:28.293Z,70.90
2023-11-30T12:26:55.434Z,71.05
2023-11-30T12:29:22.595Z,71.04
2023-11-30T12:31:50.080Z,71.00
2023-11-30T12:34:17.350Z,71.13
2023-11-30T12:36:44.709Z,71.06
2023-11-30T12:39:15.287Z,70.84
2023-11-30T12:41:43.913Z,71.07
2023-11-30T12:44:11.001Z,71.13
2023-11-30T12:46:39.351Z,71.05
2023-11-30T12:49:06.380Z,70.81
2023-11-30T12:51:33.460Z,70.96
2023-11-30T12:54:01.108Z,70.78
2023-11-30T12:56:28.934Z,70.64
2023-11-30T12:58:56.167Z,70.53
2023-11-30T13:01:23.439Z,70.77
2023-11-30T13:03:50.768Z,70.70
2023-11-30T13:06:18.401Z,70.89
2023-11-30T13:08:45.511Z,70.76
2023-11-30T13:11:12.522Z,70.60
2023-11-30T13:13:42.551Z,70.82
2023-11-30T13:16:13.254Z,70.70
2023-11-30T13:18:40.542Z,70.82
2023-11-30T13:21:07.879Z,71.00
2023-11-30T13:23:34.860Z,70.94
2023-11-30T13:26:01.882Z,71.22
2023-11-30T13:28:37.837Z,71.02
2023-11-30T13:31:10.132Z,71.08
2023-11-30T13:33:40.504Z,71.19
2023-11-30T13:36:08.521Z,71.02
2023-11-30T13:38:36.501Z,70.79
2023-11-30T13:41:04.376Z,71.09
2023-11-30T13:43:31.451Z,71.27
2023-11-30T13:45:58.634Z,71.18
2023-11-30T13:48:25.664Z,71.10
2023-11-30T13:50:56.520Z,71.07
2023-11-30T13:53:29.586Z,71.33
2023-11-30T13:55:57.878Z,71.49
2023-11-30T13:58:25.776Z,71.09
2023-11-30T14:00:53.378Z,71.31
2023-11-30T14:03:21.783Z,71.13
2023-11-30T14:05:48.956Z,71.21
2023-11-30T14:08:17.148Z,71.10
2023-11-30T14:10:44.261Z,71.31
2023-11-30T14:13:11.696Z,71.40
2023-11-30T14:15:38.802Z,71.45
2023-11-30T14:18:06.042Z,71.24
2023-11-30T14:20:35.745Z,71.12
2023-11-30T14:23:04.682Z,71.39
2023-11-30T14:25:31.812Z,71.45
2023-11-30T14:28:04.910Z,71.58
2023-11-30T14:30:36.659Z,71.41
2023-11-30T14:33:04.086Z,71.35
2023-11-30T14:35:31.267Z,71.43
2023-11-30T14:37:58.380Z,71.49
2023-11-30T14:40:25.605Z,71.28
2023-11-30T14:42:52.857Z,71.42
2023-11-30T14:45:19.896Z,71.61
2023-11-30T14:47:47.995Z,71.62
2023-11-30T14:50:17.055Z,71.40
2023-11-30T14:52:47.355Z,71.29
2023-11-30T14:55:14.925Z,71.01
2023-11-30T14:57:43.494Z,71.02
2023-11-30T15:00:16.224Z,71.34
2023-11-30T15:02:43.846Z,71.49
2023-11-30T15:05:14.906Z,71.43
2023-11-30T15:07:42.885Z,71.38
2023-11-30T15:10:12.660Z,71.39
2023-11-30T15:12:40.282Z,71.21
2023-11-30T15:15:15.541Z,71.34
2023-11-30T15:17:48.157Z,71.42
2023-11-30T15:20:16.694Z,71.24
2023-11-30T15:22:45.247Z,71.39
2023-11-30T15:25:18.809Z,71.30
2023-11-30T15:27:48.001Z,71.19
2023-11-30T15:30:16.706Z,71.44
2023-11-30T15:32:44.125Z,71.25
2023-11-30T15:35:11.294Z,71.29
2023-11-30T15:37:38.509Z,71.42
2023-11-30T15:40:12.141Z,71.28
2023-11-30T15:42:39.916Z,71.33
2023-11-30T15:45:11.723Z,71.43
2023-11-30T15:47:40.894Z,71.33
2023-11-30T15:50:08.685Z,71.37
2023-11-30T15:52:35.719Z,71.02
2023-11-30T15:55:02.899Z,71.53
2023-11-30T15:57:30.967Z,71.36
2023-11-30T15:59:58.246Z,71.37
2023-11-30T16:02:25.288Z,71.19
2023-11-30T16:04:52.794Z,71.11
2023-11-30T16:07:19.850Z,71.29
2023-11-30T16:09:46.993Z,71.39
2023-11-30T16:12:14.326Z,71.75
2023-11-30T16:14:41.619Z,71.59
2023-11-30T16:17:11.761Z,71.37
2023-11-30T16:19:39.143Z,71.36
2023-11-30T16:22:06.324Z,71.45
2023-11-30T16:24:33.602Z,71.30
2023-11-30T16:27:00.917Z,71.46
2023-11-30T16:29:27.938Z,71.44
2023-11-30T16:31:55.214Z,71.39
2023-11-30T16:34:23.501Z,71.43
2023-11-30T16:36:50.665Z,71.89
2023-11-30T16:39:18.294Z,71.40
2023-11-30T16:41:45.557Z,71.63
2023-11-30T16:44:13.085Z,71.38
2023-11-30T16:46:40.734Z,71.38
2023-11-30T16:49:08.297Z,71.35
2023-11-30T16:51:36.861Z,71.64
2023-11-30T16:54:05.207Z,71.23
2023-11-30T16:56:39.923Z,71.33
2023-11-30T16:59:07.140Z,71.86
2023-11-30T17:01:37.622Z,71.52
2023-11-30T17:04:05.608Z,71.49
2023-11-30T17:06:33.118Z,71.39
2023-11-30T17:09:00.391Z,71.85
2023-11-30T17:11:29.805Z,71.66
2023-11-30T17:13:57.465Z,71.26
2023-11-30T17:16:24.675Z,71.58
2023-11-30T17:18:52.357Z,71.58
2023-11-30T17:21:19.580Z,71.58
2023-11-30T17:23:58.424Z,71.56
2023-11-30T17:26:26.609Z,72.00
2023-11-30T17:28:53.753Z,71.82
2023-11-30T17:31:20.836Z,71.79
2023-11-30T17:33:48.287Z,72.11
2023-11-30T17:36:15.636Z,71.74
2023-11-30T17:38:42.928Z,72.23
2023-11-30T17:41:11.193Z,72.06
2023-11-30T17:43:38.698Z,72.13
2023-11-30T17:46:10.005Z,72.33
2023-11-30T17:48:47.161Z,71.81
2023-11-30T17:51:19.316Z,72.19
2023-11-30T17:53:47.727Z,72.28
2023-11-30T17:56:14.930Z,72.42
2023-11-30T17:58:42.097Z,71.79
2023-11-30T18:01:09.354Z,71.67
2023-11-30T18:03:36.597Z,72.35
2023-11-30T18:06:05.223Z,71.91
2023-11-30T18:08:32.432Z,71.98
2023-11-30T18:10:59.495Z,72.04
2023-11-30T18:13:26.701Z,72.25
2023-11-30T18:15:56.103Z,71.91
2023-11-30T18:18:23.604Z,72.00
2023-11-30T18:20:51.139Z,72.48
2023-11-30T18:23:18.242Z,72.40
2023-11-30T18:25:45.537Z,72.33
2023-11-30T18:28:13.012Z,72.34
2023-11-30T18:30:40.256Z,72.27
2023-11-30T18:33:09.311Z,72.73
2023-11-30T18:35:36.632Z,72.41
2023-11-30T18:38:05.159Z,72.52
2023-11-30T18:40:32.371Z,72.32
2023-11-30T18:42:59.601Z,72.27
2023-11-30T18:45:28.218Z,72.47
2023-11-30T18:47:58.135Z,72.25
2023-11-30T18:50:25.378Z,72.29
2023-11-30T18:52:53.425Z,72.31
2023-11-30T18:55:20.557Z,72.44
2023-11-30T18:57:53.910Z,72.94
2023-11-30T19:00:21.408Z,72.52
2023-11-30T19:02:51.504Z,72.72
2023-11-30T19:05:21.630Z,72.41
2023-11-30T19:07:48.850Z,72.90
2023-11-30T19:10:16.669Z,72.77
2023-11-30T19:12:44.656Z,73.05
2023-11-30T19:15:12.073Z,72.87
2023-11-30T19:17:49.467Z,72.86
2023-11-30T19:20:17.212Z,72.46
2023-11-30T19:22:44.394Z,72.81
2023-11-30T19:25:11.529Z,72.93
2023-11-30T19:27:38.798Z,72.88
2023-11-30T19:30:06.454Z,72.99
2023-11-30T19:32:33.602Z,72.59
2023-11-30T19:35:00.744Z,72.89
2023-11-30T19:37:27.802Z,72.90
2023-11-30T19:39:54.958Z,72.81
2023-11-30T19:42:24.347Z,72.46
2023-11-30T19:44:51.426Z,72.65
2023-11-30T19:47:19.035Z,72.99
2023-11-30T19:49:46.379Z,72.68
2023-11-30T19:52:13.524Z,72.42
2023-11-30T19:54:40.705Z,72.60
2023-11-30T19:57:07.882Z,72.68
2023-11-30T19:59:35.229Z,72.86
2023-11-30T20:02:02.528Z,72.81
2023-11-30T20:04:29.835Z,72.52
2023-11-30T20:06:58.274Z,72.62
2023-11-30T20:09:25.424Z,73.17
2023-11-30T20:11:52.563Z,72.85
2023-11-30T20:14:19.709Z,72.84
2023-11-30T20:16:47.004Z,72.58
2023-11-30T20:19:14.470Z,72.85
2023-11-30T20:21:41.580Z,72.86
2023-11-30T20:24:08.889Z,72.96
2023-11-30T20:26:40.212Z,72.50
2023-11-30T20:29:08.004Z,72.38
2023-11-30T20:31:35.353Z,72.74
2023-11-30T20:34:04.094Z,72.52
2023-11-30T20:36:31.450Z,72.63
2023-11-30T20:38:58.617Z,72.68
2023-11-30T20:41:25.809Z,72.41
2023-11-30T20:43:54.436Z,72.21
2023-11-30T20:46:21.829Z,72.40
2023-11-30T20:48:49.323Z,72.12
2023-11-30T20:51:20.302Z,72.09
2023-11-30T20:53:47.472Z,72.40
2023-11-30T20:56:14.801Z,72.42
2023-11-30T20:58:44.641Z,72.51
2023-11-30T21:01:12.271Z,72.41
2023-11-30T21:03:40.039Z,72.54
2023-11-30T21:06:07.716Z,72.41
2023-11-30T21:08:34.830Z,72.28
2023-11-30T21:11:02.612Z,72.19
2023-11-30T21:13:32.011Z,72.22
2023-11-30T21:15:59.576Z,72.04
2023-11-30T21:18:26.940Z,72.00
2023-11-30T21:20:54.303Z,72.14
2023-11-30T21:23:21.889Z,71.96
2023-11-30T21:25:49.043Z,72.03
2023-11-30T21:28:16.364Z,71.99
2023-11-30T21:30:43.519Z,71.98
2023-11-30T21:33:10.795Z,72.23
2023-11-30T21:35:38.098Z,71.67
2023-11-30T21:38:05.133Z,71.89
2023-11-30T21:40:34.387Z,71.89
2023-11-30T21:43:01.559Z,71.76
2023-11-30T21:45:28.985Z,71.91
2023-11-30T21:47:56.147Z,71.77
2023-11-30T21:50:24.842Z,72.11
2023-11-30T21:52:52.746Z,71.90
2023-11-30T21:55:20.002Z,71.79
2023-11-30T21:57:47.310Z,71.95
2023-11-30T22:00:17.270Z,71.63
2023-11-30T22:02:46.114Z,71.46
2023-11-30T22:05:23.577Z,71.95
2023-11-30T22:07:54.443Z,71.53
2023-11-30T22:10:21.634Z,71.63
2023-11-30T22:12:48.844Z,71.90
2023-11-30T22:15:15.934Z,71.72
2023-11-30T22:17:43.078Z,71.80
2023-11-30T22:20:10.791Z,71.70
2023-11-30T22:22:37.929Z,71.63
2023-11-30T22:25:05.550Z,71.72
2023-11-30T22:27:32.703Z,71.32
2023-11-30T22:29:59.999Z,71.11
2023-11-30T22:32:27.181Z,71.18
2023-11-30T22:34:54.246Z,71.39
2023-11-30T22:37:21.424Z,71.28
2023-11-30T22:39:48.680Z,71.04
2023-11-30T22:42:16.052Z,71.22
2023-11-30T22:44:43.288Z,70.88
2023-11-30T22:47:10.349Z,71.47
2023-11-30T22:49:37.906Z,71.39
2023-11-30T22:52:05.217Z,71.32
2023-11-30T22:54:33.204Z,71.43
2023-11-30T22:57:00.414Z,71.17
2023-11-30T22:59:28.879Z,70.77
2023-11-30T23:01:56.256Z,71.16
2023-11-30T23:04:24.766Z,71.63
2023-11-30T23:06:52.123Z,71.14
2023-11-30T23:09:19.319Z,71.25
2023-11-30T23:11:46.547Z,70.73
2023-11-30T23:14:14.314Z,71.27
2023-11-30T23:16:41.851Z,70.95
2023-11-30T23:19:09.206Z,70.99
2023-11-30T23:21:36.303Z,71.00
2023-11-30T23:24:03.516Z,70.88
2023-11-30T23:26:30.581Z,70.95
2023-11-30T23:28:58.070Z,70.90
2023-11-30T23:31:25.301Z,70.79
2023-11-30T23:33:52.446Z,71.14
2023-11-30T23:36:19.685Z,71.24
2023-11-30T23:38:47.089Z,71.09
2023-11-30T23:41:14.203Z,71.02
2023-11-30T23:43:41.280Z,71.47
2023-11-30T23:46:09.622Z,71.26
2023-11-30T23:48:36.824Z,70.98
2023-11-30T23:51:04.223Z,70.95
2023-11-30T23:53:31.296Z,71.07
2023-11-30T23:55:58.366Z,71.45
2023-11-30T23:58:25.482Z,70.91
